sensor_id;sensor_type;location;lat;lon;timestamp;pressure;altitude;pressure_sealevel;temperature;humidity
27334;BME280;14817;57.104;-2.094;2023-03-01T00:01:14;103110.09;;;4.65;100.00
27334;BME280;14817;57.104;-2.094;2023-03-01T00:03:42;103099.56;;;4.62;100.00
27334;BME280;14817;57.104;-2.094;2023-03-01T00:06:09;103101.72;;;4.78;100.00
27334;BME280;14817;57.104;-2.094;2023-03-01T00:08:36;103106.44;;;4.69;100.00
27334;BME280;14817;57.104;-2.094;2023-03-01T00:11:06;103106.44;;;4.69;100.00
27334;BME280;14817;57.104;-2.094;2023-03-01T00:13:34;103112.13;;;4.57;100.00
27334;BME280;14817;57.104;-2.094;2023-03-01T00:16:03;103113.84;;;4.58;100.00
27334;BME280;14817;57.104;-2.094;2023-03-01T00:18:30;103112.19;;;4.56;100.00
27334;BME280;14817;57.104;-2.094;2023-03-01T00:20:57;103121.50;;;4.41;100.00
27334;BME280;14817;57.104;-2.094;2023-03-01T00:23:25;103123.13;;;4.45;100.00
27334;BME280;14817;57.104;-2.094;2023-03-01T00:25:52;103126.97;;;4.63;100.00
27334;BME280;14817;57.104;-2.094;2023-03-01T00:28:19;103117.94;;;4.42;100.00
27334;BME280;14817;57.104;-2.094;2023-03-01T00:30:46;103116.19;;;4.41;100.00
27334;BME280;14817;57.104;-2.094;2023-03-01T00:33:13;103109.06;;;4.43;100.00
27334;BME280;14817;57.104;-2.094;2023-03-01T00:35:40;103106.16;;;4.50;100.00
27334;BME280;14817;57.104;-2.094;2023-03-01T00:38:07;103103.03;;;4.38;100.00
27334;BME280;14817;57.104;-2.094;2023-03-01T00:40:35;103099.59;;;4.34;100.00
27334;BME280;14817;57.104;-2.094;2023-03-01T00:43:03;103094.34;;;4.33;100.00
27334;BME280;14817;57.104;-2.094;2023-03-01T00:45:30;103098.53;;;4.40;100.00
27334;BME280;14817;57.104;-2.094;2023-03-01T00:47:59;103101.88;;;4.18;100.00
27334;BME280;14817;57.104;-2.094;2023-03-01T00:50:27;103101.75;;;4.21;100.00
27334;BME280;14817;57.104;-2.094;2023-03-01T00:52:55;103087.97;;;4.10;100.00
27334;BME280;14817;57.104;-2.094;2023-03-01T00:55:23;103092.72;;;3.99;100.00
27334;BME280;14817;57.104;-2.094;2023-03-01T00:57:50;103084.81;;;3.97;100.00
27334;BME280;14817;57.104;-2.094;2023-03-01T01:00:17;103076.91;;;3.96;100.00
27334;BME280;14817;57.104;-2.094;2023-03-01T01:02:46;103070.78;;;3.94;100.00
27334;BME280;14817;57.104;-2.094;2023-03-01T01:05:14;103071.72;;;3.93;100.00
27334;BME280;14817;57.104;-2.094;2023-03-01T01:07:40;103068.03;;;3.97;100.00
27334;BME280;14817;57.104;-2.094;2023-03-01T01:10:08;103071.72;;;3.93;100.00
27334;BME280;14817;57.104;-2.094;2023-03-01T01:12:35;103068.13;;;3.94;100.00
27334;BME280;14817;57.104;-2.094;2023-03-01T01:15:02;103069.16;;;3.89;100.00
27334;BME280;14817;57.104;-2.094;2023-03-01T01:17:28;103058.56;;;3.88;100.00
27334;BME280;14817;57.104;-2.094;2023-03-01T01:19:55;103053.56;;;3.79;100.00
27334;BME280;14817;57.104;-2.094;2023-03-01T01:22:22;103048.69;;;3.65;100.00
27334;BME280;14817;57.104;-2.094;2023-03-01T01:24:49;103043.50;;;3.60;100.00
27334;BME280;14817;57.104;-2.094;2023-03-01T01:27:15;103041.97;;;3.52;100.00
27334;BME280;14817;57.104;-2.094;2023-03-01T01:29:42;103035.22;;;3.41;100.00
27334;BME280;14817;57.104;-2.094;2023-03-01T01:32:09;103030.69;;;3.45;100.00
27334;BME280;14817;57.104;-2.094;2023-03-01T01:34:36;103031.97;;;3.32;100.00
27334;BME280;14817;57.104;-2.094;2023-03-01T01:37:03;103031.97;;;3.32;100.00
27334;BME280;14817;57.104;-2.094;2023-03-01T01:39:29;103024.06;;;3.30;100.00
27334;BME280;14817;57.104;-2.094;2023-03-01T01:41:56;103022.25;;;3.32;100.00
27334;BME280;14817;57.104;-2.094;2023-03-01T01:44:26;103024.91;;;3.31;100.00
27334;BME280;14817;57.104;-2.094;2023-03-01T01:47:10;103020.75;;;3.22;100.00
27334;BME280;14817;57.104;-2.094;2023-03-01T01:52:22;103017.28;;;3.20;100.00
27334;BME280;14817;57.104;-2.094;2023-03-01T01:54:55;103004.09;;;3.18;100.00
27334;BME280;14817;57.104;-2.094;2023-03-01T01:57:34;103014.69;;;3.18;100.00
27334;BME280;14817;57.104;-2.094;2023-03-01T02:00:16;103009.53;;;3.14;100.00
27334;BME280;14817;57.104;-2.094;2023-03-01T02:02:44;103005.25;;;3.10;100.00
27334;BME280;14817;57.104;-2.094;2023-03-01T02:05:37;102996.38;;;3.11;100.00
27334;BME280;14817;57.104;-2.094;2023-03-01T02:08:05;102996.47;;;3.08;100.00
27334;BME280;14817;57.104;-2.094;2023-03-01T02:10:34;102990.34;;;3.05;100.00
27334;BME280;14817;57.104;-2.094;2023-03-01T02:13:02;102988.69;;;3.01;100.00
27334;BME280;14817;57.104;-2.094;2023-03-01T02:15:37;102986.91;;;3.02;100.00
27334;BME280;14817;57.104;-2.094;2023-03-01T02:18:07;102990.50;;;2.99;100.00
27334;BME280;14817;57.104;-2.094;2023-03-01T02:21:01;102989.75;;;2.94;100.00
27334;BME280;14817;57.104;-2.094;2023-03-01T02:23:30;102979.06;;;2.99;100.00
27334;BME280;14817;57.104;-2.094;2023-03-01T02:28:37;102986.22;;;2.95;100.00
27334;BME280;14817;57.104;-2.094;2023-03-01T02:31:07;102985.28;;;2.96;100.00
27334;BME280;14817;57.104;-2.094;2023-03-01T02:33:53;102988.03;;;2.93;100.00
27334;BME280;14817;57.104;-2.094;2023-03-01T02:36:31;102984.44;;;2.96;100.00
27334;BME280;14817;57.104;-2.094;2023-03-01T02:39:04;102986.22;;;2.95;100.00
27334;BME280;14817;57.104;-2.094;2023-03-01T02:41:38;103002.94;;;2.96;100.00
27334;BME280;14817;57.104;-2.094;2023-03-01T02:44:05;102986.03;;;3.01;100.00
27334;BME280;14817;57.104;-2.094;2023-03-01T02:46:32;102996.56;;;3.03;100.00
27334;BME280;14817;57.104;-2.094;2023-03-01T02:48:59;102991.28;;;3.03;100.00
27334;BME280;14817;57.104;-2.094;2023-03-01T02:51:37;102998.34;;;3.02;100.00
27334;BME280;14817;57.104;-2.094;2023-03-01T02:57:40;102984.75;;;3.16;100.00
27334;BME280;14817;57.104;-2.094;2023-03-01T03:00:14;102976.81;;;3.16;100.00
27334;BME280;14817;57.104;-2.094;2023-03-01T03:02:51;102972.19;;;3.23;100.00
27334;BME280;14817;57.104;-2.094;2023-03-01T03:05:23;102969.44;;;3.26;100.00
27334;BME280;14817;57.104;-2.094;2023-03-01T03:07:54;102972.59;;;3.39;100.00
27334;BME280;14817;57.104;-2.094;2023-03-01T03:10:27;102967.31;;;3.39;100.00
27334;BME280;14817;57.104;-2.094;2023-03-01T03:13:09;102962.97;;;3.36;100.00
27334;BME280;14817;57.104;-2.094;2023-03-01T03:15:37;102968.28;;;3.36;100.00
27334;BME280;14817;57.104;-2.094;2023-03-01T03:18:11;102960.59;;;3.27;100.00
27334;BME280;14817;57.104;-2.094;2023-03-01T03:20:41;102960.63;;;3.25;100.00
27334;BME280;14817;57.104;-2.094;2023-03-01T03:23:09;102957.13;;;3.25;100.00
27334;BME280;14817;57.104;-2.094;2023-03-01T03:25:36;102965.91;;;3.27;100.00
27334;BME280;14817;57.104;-2.094;2023-03-01T03:28:06;102968.69;;;3.22;100.00
27334;BME280;14817;57.104;-2.094;2023-03-01T03:30:38;102954.16;;;3.36;100.00
27334;BME280;14817;57.104;-2.094;2023-03-01T03:33:06;102958.69;;;3.32;100.00
27334;BME280;14817;57.104;-2.094;2023-03-01T03:35:39;102959.59;;;3.31;100.00
27334;BME280;14817;57.104;-2.094;2023-03-01T03:38:09;102949.09;;;3.28;100.00
27334;BME280;14817;57.104;-2.094;2023-03-01T03:40:47;102953.00;;;3.15;100.00
27334;BME280;14817;57.104;-2.094;2023-03-01T03:43:17;102955.56;;;3.18;100.00
27334;BME280;14817;57.104;-2.094;2023-03-01T03:45:45;102946.88;;;3.13;100.00
27334;BME280;14817;57.104;-2.094;2023-03-01T03:48:13;102951.31;;;3.12;100.00
27334;BME280;14817;57.104;-2.094;2023-03-01T03:50:40;102942.72;;;3.04;100.00
27334;BME280;14817;57.104;-2.094;2023-03-01T03:53:10;102937.53;;;3.01;100.00
27334;BME280;14817;57.104;-2.094;2023-03-01T03:55:37;102947.91;;;3.07;100.00
27334;BME280;14817;57.104;-2.094;2023-03-01T03:58:09;102931.09;;;3.10;100.00
27334;BME280;14817;57.104;-2.094;2023-03-01T04:00:41;102933.75;;;3.10;100.00
27334;BME280;14817;57.104;-2.094;2023-03-01T04:03:08;102935.31;;;3.17;100.00
27334;BME280;14817;57.104;-2.094;2023-03-01T04:05:38;102942.31;;;3.18;100.00
27334;BME280;14817;57.104;-2.094;2023-03-01T04:08:06;102942.25;;;3.21;100.00
27334;BME280;14817;57.104;-2.094;2023-03-01T04:10:44;102948.41;;;3.21;100.00
27334;BME280;14817;57.104;-2.094;2023-03-01T04:13:13;102940.50;;;3.20;100.00
27334;BME280;14817;57.104;-2.094;2023-03-01T04:15:40;102942.31;;;3.18;100.00
27334;BME280;14817;57.104;-2.094;2023-03-01T04:18:08;102938.91;;;3.14;100.00
27334;BME280;14817;57.104;-2.094;2023-03-01T04:20:35;102933.66;;;3.13;100.00
27334;BME280;14817;57.104;-2.094;2023-03-01T04:23:27;102938.13;;;3.11;100.00
27334;BME280;14817;57.104;-2.094;2023-03-01T04:25:55;102932.81;;;3.11;100.00
27334;BME280;14817;57.104;-2.094;2023-03-01T04:30:52;102910.75;;;3.12;100.00
27334;BME280;14817;57.104;-2.094;2023-03-01T04:33:19;102916.72;;;3.18;100.00
27334;BME280;14817;57.104;-2.094;2023-03-01T04:35:48;102914.00;;;3.20;100.00
27334;BME280;14817;57.104;-2.094;2023-03-01T04:38:18;102916.47;;;3.26;100.00
27334;BME280;14817;57.104;-2.094;2023-03-01T04:40:45;102910.03;;;3.35;100.00
27334;BME280;14817;57.104;-2.094;2023-03-01T04:43:12;102909.03;;;3.39;100.00
27334;BME280;14817;57.104;-2.094;2023-03-01T04:45:42;102909.94;;;3.39;100.00
27334;BME280;14817;57.104;-2.094;2023-03-01T04:48:09;102912.47;;;3.42;100.00
27334;BME280;14817;57.104;-2.094;2023-03-01T04:50:35;102909.00;;;3.40;100.00
27334;BME280;14817;57.104;-2.094;2023-03-01T04:53:02;102908.88;;;3.43;100.00
27334;BME280;14817;57.104;-2.094;2023-03-01T04:55:30;102908.81;;;3.46;100.00
27334;BME280;14817;57.104;-2.094;2023-03-01T04:57:58;102911.28;;;3.53;100.00
27334;BME280;14817;57.104;-2.094;2023-03-01T05:00:25;102904.84;;;3.60;100.00
27334;BME280;14817;57.104;-2.094;2023-03-01T05:02:58;102906.31;;;3.70;100.00
27334;BME280;14817;57.104;-2.094;2023-03-01T05:05:28;102914.84;;;3.80;100.00
27334;BME280;14817;57.104;-2.094;2023-03-01T05:07:59;102907.94;;;3.74;100.00
27334;BME280;14817;57.104;-2.094;2023-03-01T05:10:28;102914.03;;;3.78;100.00
27334;BME280;14817;57.104;-2.094;2023-03-01T05:12:57;102911.72;;;3.67;100.00
27334;BME280;14817;57.104;-2.094;2023-03-01T05:15:28;102919.72;;;3.65;100.00
27334;BME280;14817;57.104;-2.094;2023-03-01T05:17:58;102915.38;;;3.63;100.00
27334;BME280;14817;57.104;-2.094;2023-03-01T05:20:29;102916.28;;;3.62;100.00
27334;BME280;14817;57.104;-2.094;2023-03-01T05:22:59;102911.72;;;3.67;100.00
27334;BME280;14817;57.104;-2.094;2023-03-01T05:25:26;102911.50;;;3.73;100.00
27334;BME280;14817;57.104;-2.094;2023-03-01T05:27:53;102920.06;;;3.81;100.00
27334;BME280;14817;57.104;-2.094;2023-03-01T05:30:20;102910.44;;;3.79;100.00
27334;BME280;14817;57.104;-2.094;2023-03-01T05:32:50;102915.06;;;3.72;100.00
27334;BME280;14817;57.104;-2.094;2023-03-01T05:35:22;102906.16;;;3.75;100.00
27334;BME280;14817;57.104;-2.094;2023-03-01T05:37:49;102914.97;;;3.75;100.00
27334;BME280;14817;57.104;-2.094;2023-03-01T05:40:19;102920.69;;;3.89;100.00
27334;BME280;14817;57.104;-2.094;2023-03-01T05:42:49;102921.00;;;3.80;100.00
27334;BME280;14817;57.104;-2.094;2023-03-01T05:45:17;102912.94;;;3.83;100.00
27334;BME280;14817;57.104;-2.094;2023-03-01T05:47:46;102922.69;;;3.83;100.00
27334;BME280;14817;57.104;-2.094;2023-03-01T05:50:15;102915.59;;;3.83;100.00
27334;BME280;14817;57.104;-2.094;2023-03-01T05:52:50;102920.88;;;3.83;100.00
27334;BME280;14817;57.104;-2.094;2023-03-01T05:55:20;102914.78;;;3.81;100.00
27334;BME280;14817;57.104;-2.094;2023-03-01T05:57:47;102922.56;;;3.86;100.00
27334;BME280;14817;57.104;-2.094;2023-03-01T06:00:16;102927.78;;;3.89;100.00
27334;BME280;14817;57.104;-2.094;2023-03-01T06:02:43;102937.53;;;3.88;100.00
27334;BME280;14817;57.104;-2.094;2023-03-01T06:05:11;102935.69;;;3.91;100.00
27334;BME280;14817;57.104;-2.094;2023-03-01T06:07:39;102925.91;;;3.93;100.00
27334;BME280;14817;57.104;-2.094;2023-03-01T06:10:07;102922.38;;;3.92;100.00
27334;BME280;14817;57.104;-2.094;2023-03-01T06:12:36;102930.16;;;3.97;100.00
27334;BME280;14817;57.104;-2.094;2023-03-01T06:15:04;102920.34;;;4.00;100.00
27334;BME280;14817;57.104;-2.094;2023-03-01T06:17:34;102926.50;;;4.01;100.00
27334;BME280;14817;57.104;-2.094;2023-03-01T06:22:36;102933.44;;;4.05;100.00
27334;BME280;14817;57.104;-2.094;2023-03-01T06:25:03;102939.63;;;4.05;100.00
27334;BME280;14817;57.104;-2.094;2023-03-01T06:27:30;102935.19;;;4.06;100.00
27334;BME280;14817;57.104;-2.094;2023-03-01T06:29:57;102932.25;;;4.14;100.00
27334;BME280;14817;57.104;-2.094;2023-03-01T06:32:24;102941.00;;;4.17;100.00
27334;BME280;14817;57.104;-2.094;2023-03-01T06:34:51;102943.75;;;4.14;100.00
27334;BME280;14817;57.104;-2.094;2023-03-01T06:37:17;102937.50;;;4.17;100.00
27334;BME280;14817;57.104;-2.094;2023-03-01T06:39:44;102936.47;;;4.21;100.00
27334;BME280;14817;57.104;-2.094;2023-03-01T06:42:11;102932.94;;;4.20;100.00
27334;BME280;14817;57.104;-2.094;2023-03-01T06:44:38;102932.19;;;4.17;100.00
27334;BME280;14817;57.104;-2.094;2023-03-01T06:47:05;102931.91;;;4.24;100.00
27334;BME280;14817;57.104;-2.094;2023-03-01T06:49:31;102933.91;;;4.18;100.00
27334;BME280;14817;57.104;-2.094;2023-03-01T06:51:58;102939.97;;;4.21;100.00
27334;BME280;14817;57.104;-2.094;2023-03-01T06:54:25;102943.31;;;4.26;100.00
27334;BME280;14817;57.104;-2.094;2023-03-01T06:56:52;102936.97;;;4.32;100.00
27334;BME280;14817;57.104;-2.094;2023-03-01T06:59:19;102933.16;;;4.39;100.00
27334;BME280;14817;57.104;-2.094;2023-03-01T07:01:45;102935.94;;;4.36;100.00
27334;BME280;14817;57.104;-2.094;2023-03-01T07:04:13;102937.94;;;4.29;100.00
27334;BME280;14817;57.104;-2.094;2023-03-01T07:06:40;102928.19;;;4.30;100.00
27334;BME280;14817;57.104;-2.094;2023-03-01T07:09:07;102936.34;;;4.24;100.00
27334;BME280;14817;57.104;-2.094;2023-03-01T07:11:34;102931.97;;;4.23;100.00
27334;BME280;14817;57.104;-2.094;2023-03-01T07:14:01;102924.38;;;4.12;100.00
27334;BME280;14817;57.104;-2.094;2023-03-01T07:16:27;102930.50;;;4.14;100.00
27334;BME280;14817;57.104;-2.094;2023-03-01T07:18:54;102923.25;;;4.19;100.00
27334;BME280;14817;57.104;-2.094;2023-03-01T07:21:21;102929.50;;;4.18;100.00
27334;BME280;14817;57.104;-2.094;2023-03-01T07:23:48;102925.75;;;4.24;100.00
27334;BME280;14817;57.104;-2.094;2023-03-01T07:26:15;102926.56;;;4.26;100.00
27334;BME280;14817;57.104;-2.094;2023-03-01T07:28:42;102940.75;;;4.25;100.00
27334;BME280;14817;57.104;-2.094;2023-03-01T07:31:08;102934.34;;;4.30;100.00
27334;BME280;14817;57.104;-2.094;2023-03-01T07:33:35;102935.91;;;4.38;100.00
27334;BME280;14817;57.104;-2.094;2023-03-01T07:36:03;102939.38;;;4.40;100.00
27334;BME280;14817;57.104;-2.094;2023-03-01T07:38:31;102934.91;;;4.40;100.00
27334;BME280;14817;57.104;-2.094;2023-03-01T07:41:00;102938.59;;;4.36;100.00
27334;BME280;14817;57.104;-2.094;2023-03-01T07:43:28;102941.97;;;4.66;100.00
27334;BME280;14817;57.104;-2.094;2023-03-01T07:45:59;102935.31;;;5.03;100.00
27334;BME280;14817;57.104;-2.094;2023-03-01T07:48:27;102931.00;;;5.70;100.00
27334;BME280;14817;57.104;-2.094;2023-03-01T07:50:53;102934.75;;;6.30;100.00
27334;BME280;14817;57.104;-2.094;2023-03-01T07:53:20;102935.88;;;6.45;100.00
27334;BME280;14817;57.104;-2.094;2023-03-01T07:55:47;102936.53;;;6.50;100.00
27334;BME280;14817;57.104;-2.094;2023-03-01T07:58:14;102932.22;;;6.48;100.00
27334;BME280;14817;57.104;-2.094;2023-03-01T08:00:40;102930.53;;;6.04;100.00
27334;BME280;14817;57.104;-2.094;2023-03-01T08:03:07;102940.22;;;5.83;100.00
27334;BME280;14817;57.104;-2.094;2023-03-01T08:05:34;102940.06;;;5.42;100.00
27334;BME280;14817;57.104;-2.094;2023-03-01T08:08:00;102932.56;;;5.30;100.00
27334;BME280;14817;57.104;-2.094;2023-03-01T08:10:27;102936.59;;;5.17;100.00
27334;BME280;14817;57.104;-2.094;2023-03-01T08:12:54;102937.34;;;5.20;100.00
27334;BME280;14817;57.104;-2.094;2023-03-01T08:15:20;102936.47;;;5.20;100.00
27334;BME280;14817;57.104;-2.094;2023-03-01T08:17:49;102930.00;;;5.03;100.00
27334;BME280;14817;57.104;-2.094;2023-03-01T08:20:16;102932.50;;;5.08;100.00
27334;BME280;14817;57.104;-2.094;2023-03-01T08:22:45;102929.91;;;5.06;100.00
27334;BME280;14817;57.104;-2.094;2023-03-01T08:25:12;102931.38;;;5.14;100.00
27334;BME280;14817;57.104;-2.094;2023-03-01T08:27:38;102935.22;;;5.06;100.00
27334;BME280;14817;57.104;-2.094;2023-03-01T08:30:06;102934.44;;;5.03;100.00
27334;BME280;14817;57.104;-2.094;2023-03-01T08:32:39;102921.00;;;5.07;100.00
27334;BME280;14817;57.104;-2.094;2023-03-01T08:35:06;102939.13;;;4.96;100.00
27334;BME280;14817;57.104;-2.094;2023-03-01T08:37:33;102932.81;;;4.99;100.00
27334;BME280;14817;57.104;-2.094;2023-03-01T08:40:00;102935.66;;;4.94;100.00
27334;BME280;14817;57.104;-2.094;2023-03-01T08:42:27;102932.78;;;5.00;100.00
27334;BME280;14817;57.104;-2.094;2023-03-01T08:44:54;102933.94;;;4.93;100.00
27334;BME280;14817;57.104;-2.094;2023-03-01T08:47:21;102932.81;;;4.99;100.00
27334;BME280;14817;57.104;-2.094;2023-03-01T08:49:49;102932.72;;;5.02;100.00
27334;BME280;14817;57.104;-2.094;2023-03-01T08:52:16;102931.97;;;4.98;100.00
27334;BME280;14817;57.104;-2.094;2023-03-01T08:54:43;102935.72;;;5.16;100.00
27334;BME280;14817;57.104;-2.094;2023-03-01T08:57:10;102935.09;;;5.09;100.00
27334;BME280;14817;57.104;-2.094;2023-03-01T08:59:37;102931.25;;;5.64;100.00
27334;BME280;14817;57.104;-2.094;2023-03-01T09:02:05;102935.66;;;6.09;100.00
27334;BME280;14817;57.104;-2.094;2023-03-01T09:04:32;102934.34;;;6.40;100.00
27334;BME280;14817;57.104;-2.094;2023-03-01T09:06:59;102925.63;;;6.77;100.00
27334;BME280;14817;57.104;-2.094;2023-03-01T09:09:26;102931.28;;;6.69;100.00
27334;BME280;14817;57.104;-2.094;2023-03-01T09:11:53;102931.91;;;6.56;100.00
27334;BME280;14817;57.104;-2.094;2023-03-01T09:14:19;102927.03;;;6.24;100.00
27334;BME280;14817;57.104;-2.094;2023-03-01T09:16:46;102935.00;;;6.24;100.00
27334;BME280;14817;57.104;-2.094;2023-03-01T09:19:13;102929.13;;;6.16;100.00
27334;BME280;14817;57.104;-2.094;2023-03-01T09:21:41;102925.13;;;5.84;100.00
27334;BME280;14817;57.104;-2.094;2023-03-01T09:24:13;102919.13;;;5.79;100.00
27334;BME280;14817;57.104;-2.094;2023-03-01T09:26:40;102931.06;;;5.68;100.00
27334;BME280;14817;57.104;-2.094;2023-03-01T09:29:07;102921.47;;;5.64;100.00
27334;BME280;14817;57.104;-2.094;2023-03-01T09:31:36;102924.19;;;5.63;100.00
27334;BME280;14817;57.104;-2.094;2023-03-01T09:34:03;102934.75;;;5.64;100.00
27334;BME280;14817;57.104;-2.094;2023-03-01T09:36:30;102930.75;;;5.76;100.00
27334;BME280;14817;57.104;-2.094;2023-03-01T09:38:57;102933.94;;;5.84;100.00
27334;BME280;14817;57.104;-2.094;2023-03-01T09:41:45;102938.69;;;6.00;100.00
27334;BME280;14817;57.104;-2.094;2023-03-01T09:47:05;102925.56;;;5.95;100.00
27334;BME280;14817;57.104;-2.094;2023-03-01T09:49:35;102930.88;;;5.95;100.00
27334;BME280;14817;57.104;-2.094;2023-03-01T09:52:06;102931.84;;;5.92;100.00
27334;BME280;14817;57.104;-2.094;2023-03-01T09:54:38;102920.88;;;6.02;100.00
27334;BME280;14817;57.104;-2.094;2023-03-01T09:59:45;102915.84;;;6.78;100.00
27334;BME280;14817;57.104;-2.094;2023-03-01T10:05:15;102920.63;;;6.90;100.00
27334;BME280;14817;57.104;-2.094;2023-03-01T10:07:54;102908.19;;;7.47;100.00
27334;BME280;14817;57.104;-2.094;2023-03-01T10:10:47;102905.22;;;7.90;100.00
27334;BME280;14817;57.104;-2.094;2023-03-01T10:13:25;102895.91;;;8.33;100.00
27334;BME280;14817;57.104;-2.094;2023-03-01T10:15:57;102898.75;;;8.13;100.00
27334;BME280;14817;57.104;-2.094;2023-03-01T10:18:27;102899.84;;;8.09;100.00
27334;BME280;14817;57.104;-2.094;2023-03-01T10:20:58;102900.75;;;7.90;100.00
27334;BME280;14817;57.104;-2.094;2023-03-01T10:23:27;102908.53;;;7.95;100.00
27334;BME280;14817;57.104;-2.094;2023-03-01T10:31:21;102911.66;;;7.30;100.00
27334;BME280;14817;57.104;-2.094;2023-03-01T10:33:49;102906.16;;;7.14;100.00
27334;BME280;14817;57.104;-2.094;2023-03-01T10:36:22;102912.47;;;6.93;100.00
27334;BME280;14817;57.104;-2.094;2023-03-01T10:38:52;102912.09;;;6.82;100.00
27334;BME280;14817;57.104;-2.094;2023-03-01T10:41:25;102916.00;;;6.74;100.00
27334;BME280;14817;57.104;-2.094;2023-03-01T10:43:57;102915.25;;;6.71;100.00
27334;BME280;14817;57.104;-2.094;2023-03-01T10:49:14;102918.06;;;6.47;100.00
27334;BME280;14817;57.104;-2.094;2023-03-01T10:51:46;102921.75;;;6.23;100.00
27334;BME280;14817;57.104;-2.094;2023-03-01T10:54:22;102921.34;;;6.11;100.00
27334;BME280;14817;57.104;-2.094;2023-03-01T10:56:54;102919.69;;;6.09;100.00
27334;BME280;14817;57.104;-2.094;2023-03-01T10:59:33;102911.66;;;6.10;100.00
27334;BME280;14817;57.104;-2.094;2023-03-01T11:02:22;102909.44;;;6.20;100.00
27334;BME280;14817;57.104;-2.094;2023-03-01T11:05:16;102910.13;;;6.25;100.00
27334;BME280;14817;57.104;-2.094;2023-03-01T11:10:26;102894.44;;;6.60;100.00
27334;BME280;14817;57.104;-2.094;2023-03-01T11:13:15;102893.63;;;6.79;100.00
27334;BME280;14817;57.104;-2.094;2023-03-01T11:15:43;102887.59;;;6.73;100.00
27334;BME280;14817;57.104;-2.094;2023-03-01T11:18:24;102872.09;;;6.83;100.00
27334;BME280;14817;57.104;-2.094;2023-03-01T11:21:12;102876.56;;;7.21;100.00
27334;BME280;14817;57.104;-2.094;2023-03-01T11:23:39;102873.53;;;7.47;100.00
27334;BME280;14817;57.104;-2.094;2023-03-01T11:26:08;102857.91;;;7.93;100.00
27334;BME280;14817;57.104;-2.094;2023-03-01T11:28:40;102861.22;;;7.81;100.00
27334;BME280;14817;57.104;-2.094;2023-03-01T11:31:10;102856.78;;;7.63;100.00
27334;BME280;14817;57.104;-2.094;2023-03-01T11:33:51;102869.50;;;7.39;100.00
27334;BME280;14817;57.104;-2.094;2023-03-01T11:36:33;102871.38;;;7.18;100.00
27334;BME280;14817;57.104;-2.094;2023-03-01T11:42:20;102866.97;;;6.79;100.00
27334;BME280;14817;57.104;-2.094;2023-03-01T11:44:48;102865.19;;;6.59;100.00
27334;BME280;14817;57.104;-2.094;2023-03-01T11:47:40;102859.19;;;6.74;100.00
27334;BME280;14817;57.104;-2.094;2023-03-01T11:58:53;102856.16;;;6.63;100.00
27334;BME280;14817;57.104;-2.094;2023-03-01T12:01:41;102852.25;;;6.70;100.00
27334;BME280;14817;57.104;-2.094;2023-03-01T12:04:51;102846.78;;;6.54;100.00
27334;BME280;14817;57.104;-2.094;2023-03-01T12:07:27;102842.41;;;6.53;100.00
27334;BME280;14817;57.104;-2.094;2023-03-01T12:10:03;102844.38;;;6.48;100.00
27334;BME280;14817;57.104;-2.094;2023-03-01T12:13:20;102838.38;;;6.63;100.00
27334;BME280;14817;57.104;-2.094;2023-03-01T12:16:02;102837.88;;;6.55;100.00
27334;BME280;14817;57.104;-2.094;2023-03-01T12:19:01;102835.34;;;6.52;100.00
27334;BME280;14817;57.104;-2.094;2023-03-01T12:21:53;102833.63;;;6.30;100.00
27334;BME280;14817;57.104;-2.094;2023-03-01T12:47:26;102790.44;;;7.01;100.00
27334;BME280;14817;57.104;-2.094;2023-03-01T12:50:01;102786.63;;;7.07;100.00
27334;BME280;14817;57.104;-2.094;2023-03-01T12:52:46;102786.25;;;7.14;100.00
27334;BME280;14817;57.104;-2.094;2023-03-01T12:55:34;102778.97;;;7.18;100.00
27334;BME280;14817;57.104;-2.094;2023-03-01T13:10:17;102773.25;;;7.45;100.00
27334;BME280;14817;57.104;-2.094;2023-03-01T13:18:28;102756.53;;;7.59;100.00
27334;BME280;14817;57.104;-2.094;2023-03-01T13:20:54;102758.41;;;7.56;100.00
27334;BME280;14817;57.104;-2.094;2023-03-01T13:26:11;102738.66;;;7.61;100.00
27334;BME280;14817;57.104;-2.094;2023-03-01T13:34:01;102733.31;;;7.78;100.00
27334;BME280;14817;57.104;-2.094;2023-03-01T13:39:29;102733.78;;;7.86;100.00
27334;BME280;14817;57.104;-2.094;2023-03-01T13:41:59;102727.44;;;7.71;100.00
27334;BME280;14817;57.104;-2.094;2023-03-01T13:44:32;102720.75;;;7.80;100.00
27334;BME280;14817;57.104;-2.094;2023-03-01T13:47:12;102723.66;;;7.75;100.00
27334;BME280;14817;57.104;-2.094;2023-03-01T13:49:55;102720.28;;;7.72;100.00
27334;BME280;14817;57.104;-2.094;2023-03-01T13:55:03;102703.50;;;7.70;100.00
27334;BME280;14817;57.104;-2.094;2023-03-01T13:57:34;102703.03;;;7.79;100.00
27334;BME280;14817;57.104;-2.094;2023-03-01T14:00:02;102708.19;;;7.82;100.00
27334;BME280;14817;57.104;-2.094;2023-03-01T14:02:32;102697.84;;;7.76;100.00
27334;BME280;14817;57.104;-2.094;2023-03-01T14:05:01;102703.50;;;7.70;100.00
27334;BME280;14817;57.104;-2.094;2023-03-01T14:07:28;102696.59;;;7.66;100.00
27334;BME280;14817;57.104;-2.094;2023-03-01T14:10:01;102697.38;;;7.68;100.00
27334;BME280;14817;57.104;-2.094;2023-03-01T14:13:06;102697.50;;;7.66;100.00
27334;BME280;14817;57.104;-2.094;2023-03-01T14:15:49;102699.13;;;7.51;100.00
27334;BME280;14817;57.104;-2.094;2023-03-01T14:18:31;102688.63;;;7.48;100.00
27334;BME280;14817;57.104;-2.094;2023-03-01T14:21:07;102695.69;;;7.49;100.00
27334;BME280;14817;57.104;-2.094;2023-03-01T14:23:34;102697.03;;;7.41;100.00
27334;BME280;14817;57.104;-2.094;2023-03-01T14:26:02;102696.63;;;7.31;100.00
27334;BME280;14817;57.104;-2.094;2023-03-01T14:28:31;102692.19;;;7.12;100.00
27334;BME280;14817;57.104;-2.094;2023-03-01T14:34:22;102692.13;;;7.14;100.00
27334;BME280;14817;57.104;-2.094;2023-03-01T14:36:49;102680.44;;;7.16;100.00
27334;BME280;14817;57.104;-2.094;2023-03-01T14:39:23;102683.91;;;7.19;100.00
27334;BME280;14817;57.104;-2.094;2023-03-01T14:41:50;102681.41;;;7.15;100.00